createdAt,value
2022-12-19T03:59:00.792Z,34.60
2022-12-19T04:00:00.602Z,34.70
2022-12-19T04:01:00.756Z,34.38
2022-12-19T04:02:01.042Z,34.59
2022-12-19T04:03:01.966Z,34.38
2022-12-19T04:04:01.122Z,34.48
2022-12-19T04:05:01.256Z,34.28
2022-12-19T04:06:01.377Z,34.38
2022-12-19T04:07:01.506Z,34.38
2022-12-19T04:08:01.654Z,34.38
2022-12-19T04:09:01.765Z,34.38
2022-12-19T04:10:01.884Z,34.28
2022-12-19T04:11:02.009Z,34.17
2022-12-19T04:12:02.134Z,34.17
2022-12-19T04:13:02.290Z,34.27
2022-12-19T04:14:02.364Z,34.27
2022-12-19T04:15:02.589Z,34.06
2022-12-19T04:16:02.713Z,34.06
2022-12-19T04:17:02.735Z,34.17
2022-12-19T04:18:02.918Z,34.17
2022-12-19T04:19:03.004Z,34.17
2022-12-19T04:20:03.172Z,34.17
2022-12-19T04:21:03.293Z,34.17
2022-12-19T04:22:03.400Z,34.17
2022-12-19T04:23:03.570Z,34.17
2022-12-19T04:24:03.632Z,34.06
2022-12-19T04:25:03.783Z,34.06
2022-12-19T04:26:03.875Z,33.97
2022-12-19T04:27:03.996Z,34.17
2022-12-19T04:28:04.104Z,34.27
2022-12-19T04:29:04.226Z,34.27
2022-12-19T04:30:04.341Z,34.17
2022-12-19T04:31:04.453Z,34.27
2022-12-19T04:32:04.623Z,34.06
2022-12-19T04:33:04.752Z,34.17
2022-12-19T04:34:04.863Z,34.17
2022-12-19T04:35:05.032Z,34.25
2022-12-19T04:36:05.175Z,34.35
2022-12-19T04:37:05.285Z,34.25
2022-12-19T04:38:05.481Z,34.15
2022-12-19T04:39:05.621Z,34.15
2022-12-19T04:40:05.751Z,34.05
2022-12-19T04:41:05.872Z,34.25
2022-12-19T04:42:05.992Z,34.15
2022-12-19T04:43:06.088Z,34.45
2022-12-19T04:44:06.201Z,34.25
2022-12-19T04:45:06.289Z,34.25
2022-12-19T04:46:06.475Z,34.45
2022-12-19T04:47:06.568Z,34.25
2022-12-19T04:48:08.196Z,34.25
2022-12-19T04:49:06.834Z,34.25
2022-12-19T04:50:06.957Z,34.25
2022-12-19T04:51:07.128Z,34.35
2022-12-19T04:52:07.226Z,34.05
2022-12-19T04:53:07.409Z,34.55
2022-12-19T04:54:07.491Z,34.45
2022-12-19T04:55:07.640Z,34.55
2022-12-19T04:56:07.786Z,34.35
2022-12-19T04:57:07.919Z,34.35
2022-12-19T04:58:08.070Z,34.45
2022-12-19T04:59:08.256Z,34.66
2022-12-19T05:00:08.346Z,34.66
2022-12-19T05:01:08.529Z,34.75
2022-12-19T05:02:08.751Z,34.55
2022-12-19T05:03:08.959Z,34.66
2022-12-19T05:04:09.071Z,34.66
2022-12-19T05:05:09.071Z,34.66
2022-12-19T05:06:09.173Z,34.75
2022-12-19T05:07:09.284Z,34.66
2022-12-19T05:08:09.439Z,34.75
2022-12-19T05:09:09.582Z,34.75
2022-12-19T05:10:09.733Z,34.75
2022-12-19T05:11:13.265Z,34.66
2022-12-19T05:12:10.993Z,34.95
2022-12-19T05:13:10.122Z,34.86
2022-12-19T05:14:10.386Z,34.86
2022-12-19T05:15:10.361Z,34.86
2022-12-19T05:16:10.584Z,34.95
2022-12-19T05:17:10.647Z,35.06
2022-12-19T05:18:10.792Z,34.95
2022-12-19T05:19:11.931Z,34.95
2022-12-19T05:20:11.053Z,34.86
2022-12-19T05:21:11.210Z,34.95
2022-12-19T05:22:11.353Z,34.95
2022-12-19T05:23:16.900Z,34.95
2022-12-19T05:24:12.673Z,35.06
2022-12-19T05:25:11.838Z,34.95
2022-12-19T05:26:11.930Z,34.95
2022-12-19T05:27:12.103Z,34.86
2022-12-19T05:28:12.236Z,35.06
2022-12-19T05:29:12.443Z,35.06
2022-12-19T05:30:12.556Z,35.16
2022-12-19T05:31:12.722Z,35.06
2022-12-19T05:32:12.801Z,35.06
2022-12-19T05:33:12.969Z,35.06
2022-12-19T05:34:13.102Z,34.95
2022-12-19T05:35:13.248Z,34.86
2022-12-19T05:36:13.455Z,34.86
2022-12-19T05:37:13.556Z,35.16
2022-12-19T05:38:13.680Z,35.06
2022-12-19T05:39:13.865Z,35.16
2022-12-19T05:40:14.004Z,35.16
2022-12-19T05:41:14.915Z,35.16
2022-12-19T05:42:14.244Z,35.06
2022-12-19T05:43:14.403Z,35.16
2022-12-19T05:44:14.567Z,35.36
2022-12-19T05:45:14.664Z,35.26
2022-12-19T05:46:14.831Z,35.26
2022-12-19T05:47:14.974Z,35.26
2022-12-19T05:48:15.126Z,35.36
2022-12-19T05:49:15.234Z,35.26
2022-12-19T05:50:15.327Z,35.16
2022-12-19T05:51:15.503Z,35.26
2022-12-19T05:52:15.775Z,35.16
2022-12-19T05:53:15.745Z,35.36
2022-12-19T05:54:15.920Z,35.46
2022-12-19T05:55:16.058Z,35.36
2022-12-19T05:56:17.171Z,35.14
2022-12-19T05:57:16.311Z,34.94
2022-12-19T05:58:16.502Z,35.14
2022-12-19T05:59:16.626Z,35.14
2022-12-19T06:00:16.761Z,35.14
2022-12-19T06:01:16.911Z,35.14
2022-12-19T06:02:17.028Z,35.04
2022-12-19T06:03:17.241Z,35.35
2022-12-19T06:04:17.384Z,35.44
2022-12-19T06:05:17.437Z,35.44
2022-12-19T06:06:18.546Z,35.35
2022-12-19T06:07:20.881Z,35.24
2022-12-19T06:08:17.940Z,35.65
2022-12-19T06:09:18.021Z,35.44
2022-12-19T06:10:18.184Z,35.44
2022-12-19T06:11:18.321Z,35.44
2022-12-19T06:12:18.547Z,35.35
2022-12-19T06:13:22.158Z,35.35
2022-12-19T06:14:19.750Z,35.24
2022-12-19T06:15:18.898Z,35.65
2022-12-19T06:16:19.099Z,35.85
2022-12-19T06:17:19.069Z,35.75
2022-12-19T06:18:19.223Z,36.15
2022-12-19T06:19:19.375Z,35.75
2022-12-19T06:20:19.458Z,35.75
2022-12-19T06:21:19.623Z,35.75
2022-12-19T06:22:19.764Z,35.75
2022-12-19T06:23:19.925Z,35.85
2022-12-19T06:24:20.029Z,35.85
2022-12-19T06:25:20.188Z,35.65
2022-12-19T06:26:21.341Z,35.85
2022-12-19T06:27:20.485Z,35.95
2022-12-19T06:28:20.565Z,35.75
2022-12-19T06:29:20.875Z,35.85
2022-12-19T06:30:20.864Z,35.95
2022-12-19T06:31:21.022Z,36.05
2022-12-19T06:32:21.100Z,36.05
2022-12-19T06:33:21.226Z,35.85
2022-12-19T06:34:39.833Z,35.75
2022-12-19T06:35:22.514Z,35.85
2022-12-19T06:36:21.685Z,35.95
2022-12-19T06:37:21.811Z,36.25
2022-12-19T06:38:21.859Z,35.95
2022-12-19T06:39:22.054Z,35.75
2022-12-19T06:40:22.142Z,35.95
2022-12-19T06:41:25.370Z,36.05
2022-12-19T06:42:22.452Z,36.25
2022-12-19T06:43:22.530Z,36.15
2022-12-19T06:44:23.264Z,36.15
2022-12-19T06:45:22.881Z,36.05
2022-12-19T06:46:22.971Z,36.05
2022-12-19T06:47:23.125Z,36.15
2022-12-19T06:48:23.258Z,36.25
2022-12-19T06:49:23.409Z,36.35
2022-12-19T06:50:23.589Z,36.25
2022-12-19T06:51:23.711Z,36.25
2022-12-19T06:52:23.791Z,36.15
2022-12-19T06:53:23.977Z,36.15
2022-12-19T06:54:24.069Z,35.95
2022-12-19T06:55:24.205Z,36.05
2022-12-19T06:56:24.310Z,36.15
2022-12-19T06:57:24.448Z,36.05
2022-12-19T06:58:24.657Z,36.35
2022-12-19T06:59:24.748Z,36.46
2022-12-19T07:00:24.877Z,36.35
2022-12-19T07:01:25.120Z,36.46
2022-12-19T07:02:26.162Z,36.35
2022-12-19T07:03:25.296Z,36.35
2022-12-19T07:04:25.385Z,36.35
2022-12-19T07:05:25.526Z,36.25
2022-12-19T07:06:25.723Z,36.34
2022-12-19T07:07:25.784Z,36.25
2022-12-19T07:08:25.911Z,36.35
2022-12-19T07:09:26.061Z,36.66
2022-12-19T07:10:26.258Z,36.55
2022-12-19T07:11:26.373Z,36.44
2022-12-19T07:12:26.470Z,36.55
2022-12-19T07:13:26.614Z,36.76
2022-12-19T07:14:26.761Z,36.55
2022-12-19T07:15:26.951Z,36.55
2022-12-19T07:16:27.098Z,36.66
2022-12-19T07:17:27.197Z,36.46
2022-12-19T07:18:27.339Z,36.54
2022-12-19T07:19:27.510Z,36.64
2022-12-19T07:20:27.618Z,36.44
2022-12-19T07:21:27.724Z,36.76
2022-12-19T07:22:27.917Z,36.64
2022-12-19T07:23:28.023Z,36.74
2022-12-19T07:24:28.099Z,36.76
2022-12-19T07:25:28.280Z,36.84
2022-12-19T07:26:28.341Z,36.74
2022-12-19T07:27:35.180Z,36.84
2022-12-19T07:28:29.600Z,36.74
2022-12-19T07:29:28.725Z,36.84
2022-12-19T07:30:28.868Z,36.94
2022-12-19T07:31:28.945Z,36.84
2022-12-19T07:32:29.065Z,36.84
2022-12-19T07:33:29.219Z,36.94
2022-12-19T07:34:29.384Z,36.74
2022-12-19T07:35:29.556Z,36.94
2022-12-19T07:36:29.676Z,36.84
2022-12-19T07:37:29.765Z,36.84
2022-12-19T07:38:29.934Z,36.64
2022-12-19T07:39:30.027Z,36.84
2022-12-19T07:40:30.294Z,36.84
2022-12-19T07:41:30.377Z,36.94
2022-12-19T07:42:32.671Z,36.84
2022-12-19T07:43:30.642Z,36.94
2022-12-19T07:44:30.751Z,37.04
2022-12-19T07:45:30.974Z,37.04
2022-12-19T07:46:31.009Z,37.15
2022-12-19T07:47:31.167Z,37.15
2022-12-19T07:48:31.875Z,37.45
2022-12-19T07:49:31.400Z,37.35
2022-12-19T07:50:31.506Z,37.15
2022-12-19T07:51:31.609Z,37.15
2022-12-19T07:52:31.787Z,37.24
2022-12-19T07:53:31.962Z,37.24
2022-12-19T07:54:32.027Z,37.15
2022-12-19T07:55:32.108Z,37.04
2022-12-19T07:56:32.307Z,37.35
2022-12-19T07:57:32.435Z,37.35
2022-12-19T07:58:32.615Z,37.15
2022-12-19T07:59:37.390Z,37.35
2022-12-19T08:00:33.851Z,37.04
2022-12-19T08:01:33.092Z,37.15
2022-12-19T08:02:33.212Z,37.35
2022-12-19T08:03:33.240Z,37.24
2022-12-19T08:04:33.353Z,37.35
2022-12-19T08:05:33.446Z,37.35
2022-12-19T08:06:39.120Z,37.24
2022-12-19T08:07:34.744Z,37.35
2022-12-19T08:08:33.824Z,37.35
2022-12-19T08:09:33.938Z,37.35
2022-12-19T08:10:34.085Z,37.35
2022-12-19T08:11:34.163Z,37.55
2022-12-19T08:12:34.275Z,37.45
2022-12-19T08:13:39.626Z,37.55
2022-12-19T08:14:35.486Z,37.75
2022-12-19T08:15:35.586Z,37.55
2022-12-19T08:16:49.337Z,37.45
2022-12-19T08:17:35.989Z,37.35
2022-12-19T08:18:35.072Z,37.65
2022-12-19T08:19:35.207Z,37.55
2022-12-19T08:20:36.293Z,37.65
2022-12-19T08:21:35.465Z,37.75
2022-12-19T08:22:35.631Z,37.95
2022-12-19T08:23:35.804Z,37.85
2022-12-19T08:24:35.933Z,37.85
2022-12-19T08:25:36.043Z,37.85
2022-12-19T08:26:40.645Z,37.85
2022-12-19T08:27:37.329Z,37.75
2022-12-19T08:28:36.477Z,38.06
2022-12-19T08:29:36.540Z,38.15
2022-12-19T08:30:36.710Z,37.95
2022-12-19T08:31:36.808Z,38.46
2022-12-19T08:32:36.927Z,38.26
2022-12-19T08:33:37.089Z,38.56
2022-12-19T08:34:37.267Z,38.35
2022-12-19T08:35:37.543Z,38.06
2022-12-19T08:36:37.539Z,38.06
2022-12-19T08:37:37.653Z,37.85
2022-12-19T08:38:37.797Z,38.15
2022-12-19T08:39:37.928Z,38.15
2022-12-19T08:40:40.563Z,38.06
2022-12-19T08:41:39.223Z,38.26
2022-12-19T08:42:38.404Z,38.06
2022-12-19T08:43:38.536Z,37.95
2022-12-19T08:44:38.666Z,38.06
2022-12-19T08:45:39.244Z,38.06
2022-12-19T08:46:39.040Z,38.35
2022-12-19T08:47:39.050Z,38.06
2022-12-19T08:48:39.188Z,38.26
2022-12-19T08:49:39.345Z,38.26
2022-12-19T08:50:39.635Z,38.26
2022-12-19T08:51:39.599Z,38.26
2022-12-19T08:52:39.757Z,38.46
2022-12-19T08:53:39.934Z,38.35
2022-12-19T08:54:40.011Z,38.26
2022-12-19T08:55:40.146Z,38.46
2022-12-19T08:56:46.486Z,38.35
2022-12-19T08:57:41.417Z,38.26
2022-12-19T08:58:40.599Z,38.26
2022-12-19T08:59:40.777Z,38.46
2022-12-19T09:00:41.862Z,38.46
2022-12-19T09:01:41.122Z,38.76
2022-12-19T09:02:41.342Z,38.76
2022-12-19T09:03:55.025Z,38.86
2022-12-19T09:05:58.010Z,38.76
2022-12-19T09:06:03.571Z,38.96
2022-12-19T09:06:42.740Z,38.66
2022-12-19T09:07:41.762Z,38.56
2022-12-19T09:08:41.938Z,38.66
2022-12-19T09:09:42.093Z,38.76
2022-12-19T09:10:43.225Z,38.76
2022-12-19T09:11:47.621Z,38.66
2022-12-19T09:12:43.445Z,38.86
2022-12-19T09:13:42.540Z,38.96
2022-12-19T09:14:42.688Z,38.86
2022-12-19T09:15:42.811Z,38.96
2022-12-19T09:16:42.959Z,38.86
2022-12-19T09:17:43.045Z,39.06
2022-12-19T09:18:48.246Z,38.96
2022-12-19T09:19:47.512Z,38.86
2022-12-19T09:20:43.547Z,39.06
2022-12-19T09:21:43.615Z,38.96
2022-12-19T09:22:43.738Z,38.86
2022-12-19T09:23:43.885Z,38.96
2022-12-19T09:24:44.051Z,39.06
2022-12-19T09:25:44.197Z,38.96
2022-12-19T09:26:44.281Z,39.26
2022-12-19T09:28:17.938Z,39.06
2022-12-19T09:28:45.592Z,39.37
2022-12-19T09:29:44.810Z,39.57
2022-12-19T09:30:44.968Z,39.26
2022-12-19T09:31:45.012Z,39.17
2022-12-19T09:32:45.133Z,39.67
2022-12-19T09:33:45.243Z,39.57
2022-12-19T09:34:45.551Z,39.17
2022-12-19T09:35:45.588Z,39.17
2022-12-19T09:36:45.687Z,39.37
2022-12-19T09:37:45.784Z,39.26
2022-12-19T09:38:45.985Z,39.26
2022-12-19T09:39:46.063Z,39.47
2022-12-19T09:40:46.191Z,39.47
2022-12-19T09:41:46.310Z,39.26
2022-12-19T09:42:46.410Z,39.65
2022-12-19T09:43:46.606Z,39.57
2022-12-19T09:44:46.721Z,39.45
2022-12-19T09:45:46.998Z,39.55
2022-12-19T09:46:47.077Z,39.55
2022-12-19T09:47:47.239Z,39.55
2022-12-19T09:48:52.668Z,39.75
2022-12-19T09:49:49.382Z,39.85
2022-12-19T09:50:47.614Z,39.65
2022-12-19T09:51:47.712Z,39.75
2022-12-19T09:52:47.788Z,39.95
2022-12-19T09:53:53.751Z,39.65
2022-12-19T09:54:49.009Z,39.55
2022-12-19T09:55:48.125Z,39.75
2022-12-19T09:56:48.233Z,39.85
2022-12-19T09:57:48.378Z,39.95
2022-12-19T09:58:48.461Z,39.75
2022-12-19T09:59:50.372Z,39.95
2022-12-19T10:00:48.723Z,40.36
2022-12-19T10:01:49.905Z,39.95
2022-12-19T10:13:12.821Z,40.48
2022-12-19T10:14:11.181Z,40.58
2022-12-19T10:15:11.295Z,40.58
2022-12-19T10:16:11.446Z,40.58
2022-12-19T10:17:26.791Z,40.58
2022-12-19T10:18:12.730Z,40.48
2022-12-19T10:19:11.800Z,40.68
2022-12-19T10:20:11.948Z,40.58
2022-12-19T10:21:12.086Z,40.88
2022-12-19T10:22:19.784Z,41.16
2022-12-19T10:23:13.345Z,40.88
2022-12-19T10:24:12.507Z,40.66
2022-12-19T10:25:12.623Z,40.96
2022-12-19T10:26:12.778Z,40.86
2022-12-19T10:27:12.901Z,40.96
2022-12-19T10:28:13.003Z,40.76
2022-12-19T10:29:13.113Z,40.76
2022-12-19T10:30:13.230Z,40.66
2022-12-19T10:31:21.442Z,40.76
2022-12-19T10:32:14.674Z,40.66
2022-12-19T10:33:14.773Z,40.66
2022-12-19T10:34:15.767Z,40.66
2022-12-19T10:35:13.933Z,40.66
2022-12-19T10:36:14.613Z,40.56
2022-12-19T10:37:26.511Z,40.56
2022-12-19T10:38:16.243Z,40.56
2022-12-19T10:39:15.337Z,40.66
2022-12-19T10:40:17.617Z,40.66
2022-12-19T10:41:16.626Z,40.66
2022-12-19T10:42:14.784Z,40.36
2022-12-19T10:43:19.292Z,40.56
2022-12-19T10:44:15.993Z,40.96
2022-12-19T10:45:16.061Z,40.96
2022-12-19T10:46:15.408Z,40.86
2022-12-19T10:47:15.334Z,41.06
2022-12-19T10:48:16.452Z,40.86
2022-12-19T10:49:15.646Z,41.36
2022-12-19T10:50:16.704Z,41.27
2022-12-19T10:51:16.896Z,41.16
2022-12-19T10:52:16.077Z,40.96
2022-12-19T10:53:16.141Z,41.27
2022-12-19T10:54:16.250Z,40.96
2022-12-19T10:55:16.445Z,40.86
2022-12-19T10:56:16.515Z,40.86
2022-12-19T10:57:16.648Z,40.96
2022-12-19T10:58:16.816Z,40.96
2022-12-19T10:59:16.985Z,41.36
2022-12-19T11:00:17.136Z,41.16
2022-12-19T11:01:17.295Z,41.06
2022-12-19T11:02:17.319Z,41.27
2022-12-19T11:03:19.341Z,41.36
2022-12-19T11:04:17.557Z,41.36
2022-12-19T11:05:17.729Z,41.25
2022-12-19T11:06:17.851Z,41.16
2022-12-19T11:07:17.930Z,41.14
2022-12-19T11:08:18.102Z,41.25
2022-12-19T11:09:18.195Z,41.47
2022-12-19T11:10:57.199Z,41.55
2022-12-19T11:13:33.793Z,41.25
2022-12-19T11:14:40.673Z,41.25
2022-12-19T11:15:46.632Z,41.14
2022-12-19T11:18:20.936Z,41.65
2022-12-19T11:18:43.417Z,41.45
2022-12-19T11:19:23.047Z,41.45
2022-12-19T11:21:18.374Z,41.45
2022-12-19T11:27:03.867Z,41.35
2022-12-19T11:27:24.359Z,41.55
2022-12-19T11:29:30.351Z,41.35
2022-12-19T11:29:33.971Z,41.55
2022-12-19T11:29:36.673Z,41.55
2022-12-19T11:29:41.754Z,41.75
2022-12-19T11:30:06.586Z,41.55
2022-12-19T11:30:21.355Z,41.55
2022-12-19T11:30:46.255Z,41.55
2022-12-19T11:30:47.107Z,41.85
2022-12-19T11:30:59.586Z,41.55
2022-12-19T11:32:01.701Z,41.75
2022-12-19T11:32:39.704Z,41.85
2022-12-19T11:33:22.578Z,41.85
2022-12-19T11:34:21.626Z,41.75
2022-12-19T11:35:24.926Z,41.85
2022-12-19T11:36:21.881Z,41.95
2022-12-19T11:37:22.131Z,41.95
2022-12-19T11:38:22.154Z,41.65
2022-12-19T11:39:22.326Z,41.85
2022-12-19T11:40:22.435Z,41.85
2022-12-19T11:41:22.549Z,41.75
2022-12-19T11:42:22.659Z,42.05
2022-12-19T11:44:23.947Z,41.75
2022-12-19T11:45:23.966Z,41.95
2022-12-19T11:46:23.116Z,42.05
2022-12-19T11:47:23.265Z,41.85
2022-12-19T11:48:23.338Z,41.95
2022-12-19T11:49:23.458Z,41.85
2022-12-19T11:50:24.615Z,42.05
2022-12-19T11:51:23.785Z,42.05
2022-12-19T11:53:02.195Z,42.15
2022-12-19T11:53:24.990Z,42.05
2022-12-19T11:54:24.069Z,41.85
2022-12-19T11:55:24.177Z,42.15
2022-12-19T11:56:25.277Z,42.05
2022-12-19T11:57:24.445Z,42.15
2022-12-19T11:58:24.638Z,42.35
2022-12-19T11:59:24.776Z,42.05
2022-12-19T12:00:24.852Z,42.35
2022-12-19T12:01:25.046Z,41.85
2022-12-19T12:02:25.115Z,42.05
2022-12-19T12:03:25.304Z,42.35
2022-12-19T12:04:25.498Z,42.35
2022-12-19T12:05:25.573Z,42.35
2022-12-19T12:06:31.310Z,42.25
2022-12-19T12:08:02.687Z,42.25
2022-12-19T12:10:12.778Z,42.46
2022-12-19T12:14:35.537Z,42.15
2022-12-19T12:14:36.937Z,42.25
2022-12-19T12:16:39.932Z,42.55
2022-12-19T12:22:11.187Z,42.15
2022-12-19T12:22:20.253Z,42.35
2022-12-19T12:25:36.727Z,42.66
2022-12-19T12:27:31.035Z,42.55
2022-12-19T12:30:26.177Z,42.46
2022-12-19T12:30:59.172Z,42.46
2022-12-19T12:31:06.985Z,42.46
2022-12-19T12:31:14.804Z,42.46
2022-12-19T12:31:15.619Z,42.46
2022-12-19T12:31:22.780Z,42.35
2022-12-19T12:31:26.202Z,42.46
2022-12-19T12:31:45.491Z,42.35
2022-12-19T12:31:50.065Z,42.46
2022-12-19T12:31:50.628Z,42.25
2022-12-19T12:31:51.153Z,42.35
2022-12-19T12:31:51.726Z,42.25
2022-12-19T12:31:58.472Z,42.35
2022-12-19T12:32:05.395Z,42.25
2022-12-19T12:35:09.089Z,42.46
2022-12-19T12:35:14.545Z,42.35
2022-12-19T12:35:38.558Z,42.55
2022-12-19T12:35:46.560Z,42.55
2022-12-19T12:35:51.342Z,42.46
2022-12-19T12:38:31.634Z,42.66
2022-12-19T12:39:33.555Z,42.76
2022-12-19T12:40:30.287Z,42.86
2022-12-19T12:41:30.369Z,42.66
2022-12-19T12:42:30.489Z,42.66
2022-12-19T12:43:30.591Z,42.76
2022-12-19T12:44:33.411Z,42.76
2022-12-19T12:45:30.964Z,43.06
2022-12-19T12:46:31.083Z,42.86
2022-12-19T12:47:31.178Z,42.76
2022-12-19T12:48:31.310Z,42.76
2022-12-19T12:49:31.550Z,42.86
2022-12-19T12:50:31.609Z,42.96
2022-12-19T12:51:31.743Z,42.66
2022-12-19T12:52:32.807Z,42.66
2022-12-19T12:53:32.046Z,43.06
2022-12-19T12:54:32.109Z,43.06
2022-12-19T12:55:32.316Z,42.96
2022-12-19T12:56:32.440Z,43.06
2022-12-19T12:57:32.827Z,42.96
2022-12-19T12:58:32.697Z,42.96
2022-12-19T12:59:32.844Z,42.96
2022-12-19T13:00:33.005Z,42.96
2022-12-19T13:01:33.248Z,43.16
2022-12-19T13:02:33.409Z,43.16
2022-12-19T13:03:33.451Z,43.16
2022-12-19T13:04:33.517Z,43.26
2022-12-19T13:05:33.666Z,43.06
2022-12-19T13:06:33.748Z,43.26
2022-12-19T13:07:33.913Z,43.26
2022-12-19T13:08:33.958Z,43.26
2022-12-19T13:09:34.076Z,43.26
2022-12-19T13:10:34.180Z,43.26
2022-12-19T13:11:34.408Z,43.46
2022-12-19T13:12:34.462Z,43.46
2022-12-19T13:13:34.582Z,43.37
2022-12-19T13:14:35.701Z,43.26
2022-12-19T13:15:34.824Z,43.26
2022-12-19T13:16:34.975Z,43.16
2022-12-19T13:17:35.059Z,43.26
2022-12-19T13:18:35.188Z,43.37
2022-12-19T13:19:35.376Z,43.46
2022-12-19T13:20:35.541Z,43.37
2022-12-19T13:21:35.665Z,43.16
2022-12-19T13:22:35.840Z,43.37
2022-12-19T13:23:35.937Z,43.46
2022-12-19T13:24:36.062Z,43.26
2022-12-19T13:25:36.162Z,43.26
2022-12-19T13:26:36.270Z,43.16
2022-12-19T13:27:36.371Z,43.26
2022-12-19T13:28:36.467Z,43.16
2022-12-19T13:29:36.633Z,43.46
2022-12-19T13:31:13.522Z,43.37
2022-12-19T13:31:37.914Z,43.46
2022-12-19T13:32:36.963Z,43.37
2022-12-19T13:33:37.116Z,43.37
2022-12-19T13:34:37.291Z,43.57
2022-12-19T13:36:03.820Z,43.46
2022-12-19T13:39:48.727Z,43.66
2022-12-19T13:39:57.349Z,43.66
2022-12-19T13:39:59.209Z,43.57
2022-12-19T13:39:59.351Z,43.46
2022-12-19T13:40:39.152Z,43.46
2022-12-19T13:41:38.311Z,43.46
2022-12-19T13:42:38.522Z,43.66
2022-12-19T13:43:38.611Z,43.46
2022-12-19T13:44:38.714Z,43.66
2022-12-19T13:45:38.945Z,43.77
2022-12-19T13:46:39.062Z,43.66
2022-12-19T13:47:39.133Z,43.97
2022-12-19T13:48:39.220Z,43.66
2022-12-19T13:49:39.323Z,43.66
2022-12-19T13:50:39.447Z,43.77
2022-12-19T13:51:39.550Z,43.77
2022-12-19T13:52:39.724Z,43.77
2022-12-19T13:53:39.819Z,43.66
2022-12-19T13:54:40.003Z,43.87
2022-12-19T13:55:40.149Z,43.87
2022-12-19T13:56:40.297Z,43.97
2022-12-19T13:57:40.439Z,44.17
2022-12-19T13:58:40.542Z,43.97
2022-12-19T13:59:40.726Z,43.66
2022-12-19T14:00:41.828Z,43.77
2022-12-19T14:01:41.105Z,44.17
2022-12-19T14:02:45.064Z,43.66
2022-12-19T14:03:42.288Z,44.07
2022-12-19T14:04:41.421Z,44.07
2022-12-19T14:06:16.719Z,43.66
2022-12-19T14:06:42.597Z,43.87
2022-12-19T14:07:41.781Z,44.07
2022-12-19T14:08:41.869Z,43.87
2022-12-19T14:11:32.373Z,43.97
2022-12-19T14:11:33.607Z,43.77
2022-12-19T14:12:26.099Z,44.07
2022-12-19T14:13:55.748Z,44.17
2022-12-19T14:13:58.818Z,43.87
2022-12-19T14:14:43.705Z,43.97
2022-12-19T14:15:42.897Z,43.87
2022-12-19T14:16:44.686Z,43.97
2022-12-19T14:17:43.106Z,43.87
2022-12-19T14:18:45.924Z,43.66
2022-12-19T14:19:43.392Z,44.17
2022-12-19T14:22:01.797Z,43.87
2022-12-19T14:22:11.804Z,43.87
2022-12-19T14:22:44.783Z,43.87
2022-12-19T14:23:44.638Z,43.77
2022-12-19T14:24:44.066Z,43.87
2022-12-19T14:28:15.804Z,43.77
2022-12-19T14:28:16.786Z,43.77
2022-12-19T14:28:20.291Z,43.66
2022-12-19T14:28:52.465Z,43.97
2022-12-19T14:30:27.881Z,43.87
2022-12-19T14:30:45.988Z,43.87
2022-12-19T14:32:23.903Z,43.87
2022-12-19T14:33:47.423Z,44.07
2022-12-19T14:34:10.982Z,43.87
2022-12-19T14:35:46.586Z,43.87
2022-12-19T14:36:09.672Z,43.87
2022-12-19T14:36:46.805Z,43.77
2022-12-19T14:39:18.501Z,44.07
2022-12-19T14:39:22.154Z,44.17
2022-12-19T14:39:47.250Z,43.87
2022-12-19T14:41:08.876Z,43.77
2022-12-19T14:41:47.476Z,43.66
2022-12-19T14:43:56.378Z,43.97
2022-12-19T14:43:56.694Z,43.87
2022-12-19T14:51:42.914Z,44.07
2022-12-19T14:52:08.149Z,43.87
2022-12-19T14:52:25.408Z,43.77
2022-12-19T14:53:51.401Z,43.77
2022-12-19T14:54:04.125Z,43.97
2022-12-19T14:54:05.915Z,43.87
2022-12-19T14:54:22.082Z,43.97
2022-12-19T14:54:25.032Z,43.87
2022-12-19T14:54:29.543Z,43.77
2022-12-19T14:54:34.885Z,43.66
2022-12-19T14:56:17.644Z,44.07
2022-12-19T14:56:17.806Z,43.97
2022-12-19T14:57:05.150Z,44.17
2022-12-19T14:58:54.154Z,43.66
2022-12-19T14:58:54.885Z,43.66
2022-12-19T14:59:49.990Z,43.87
2022-12-19T15:01:08.077Z,43.97
2022-12-19T15:01:50.338Z,43.77
2022-12-19T15:02:49.467Z,43.66
2022-12-19T15:04:48.070Z,43.77
2022-12-19T15:04:54.994Z,43.97
2022-12-19T15:05:49.765Z,43.87
2022-12-19T15:07:07.985Z,43.87
2022-12-19T15:07:50.971Z,43.97
2022-12-19T15:10:58.685Z,43.77
2022-12-19T15:10:58.827Z,43.66
2022-12-19T15:11:06.266Z,43.77
2022-12-19T15:12:05.816Z,43.77
2022-12-19T15:14:48.855Z,43.87
2022-12-19T15:14:56.832Z,43.87
2022-12-19T15:14:59.650Z,43.87
2022-12-19T15:15:51.984Z,43.87
2022-12-19T15:16:51.037Z,43.87
2022-12-19T15:17:51.182Z,43.66
2022-12-19T15:18:51.308Z,43.97
2022-12-19T15:19:51.399Z,43.77
2022-12-19T15:20:51.573Z,43.77
2022-12-19T15:21:51.745Z,43.87
2022-12-19T15:22:51.871Z,43.97
2022-12-19T15:23:52.030Z,43.97
2022-12-19T15:24:52.085Z,44.07
2022-12-19T15:26:08.433Z,43.97
2022-12-19T15:26:53.325Z,44.07
2022-12-19T15:27:52.464Z,43.87
2022-12-19T15:28:52.603Z,43.87
2022-12-19T15:29:52.691Z,43.87
2022-12-19T15:30:52.825Z,43.87
2022-12-19T15:31:53.012Z,44.07
2022-12-19T15:32:53.066Z,43.87
2022-12-19T15:34:32.295Z,43.97
2022-12-19T15:34:54.394Z,43.87
2022-12-19T15:35:53.536Z,43.87
2022-12-19T15:36:53.680Z,43.77
2022-12-19T15:37:53.855Z,43.66
2022-12-19T15:38:53.968Z,43.46
2022-12-19T15:39:54.069Z,43.66
2022-12-19T15:40:54.209Z,43.66
2022-12-19T15:41:54.371Z,43.77
2022-12-19T15:42:54.495Z,43.87
2022-12-19T15:44:04.150Z,43.66
2022-12-19T15:44:55.765Z,43.66
2022-12-19T15:45:54.889Z,43.87
2022-12-19T15:46:55.090Z,43.77
2022-12-19T15:47:55.173Z,43.87
2022-12-19T15:48:55.357Z,43.87
2022-12-19T15:49:55.423Z,43.66
2022-12-19T15:50:55.623Z,43.57
2022-12-19T15:51:55.697Z,43.57
2022-12-19T15:52:55.866Z,43.66
2022-12-19T15:54:09.103Z,43.57
2022-12-19T15:54:57.126Z,43.57
2022-12-19T15:55:56.255Z,43.77
2022-12-19T15:56:56.430Z,43.66
2022-12-19T15:57:56.547Z,43.46
2022-12-19T15:58:56.697Z,43.46
2022-12-19T15:59:56.908Z,43.66
2022-12-19T16:00:57.035Z,43.66
2022-12-19T16:12:21.992Z,43.89
2022-12-19T16:13:22.113Z,43.99
2022-12-19T16:14:22.212Z,43.99
2022-12-19T16:15:22.396Z,43.89
2022-12-19T16:16:22.615Z,44.19
2022-12-19T16:17:22.696Z,43.99
2022-12-19T16:18:22.809Z,43.99
2022-12-19T16:19:22.940Z,43.89
2022-12-19T16:20:23.041Z,43.89
2022-12-19T16:21:29.299Z,43.89
2022-12-19T16:22:24.364Z,43.79
2022-12-19T16:23:23.469Z,43.79
2022-12-19T16:24:23.629Z,43.79
2022-12-19T16:25:23.779Z,43.77
2022-12-19T16:26:23.929Z,43.57
2022-12-19T16:27:24.093Z,43.57
2022-12-19T16:28:24.220Z,43.66
2022-12-19T16:29:24.348Z,43.46
2022-12-19T16:30:24.535Z,43.57
2022-12-19T16:31:24.658Z,43.66
2022-12-19T16:32:24.788Z,43.57
2022-12-19T16:33:24.922Z,43.57
2022-12-19T16:34:25.040Z,43.46
2022-12-19T16:35:54.942Z,43.57
2022-12-19T16:36:26.229Z,43.46
2022-12-19T16:37:31.779Z,43.37
2022-12-19T16:38:26.521Z,43.46
2022-12-19T16:39:25.637Z,43.46
2022-12-19T16:40:25.801Z,43.46
2022-12-19T16:41:25.912Z,43.57
2022-12-19T16:42:26.098Z,43.57
2022-12-19T16:43:26.187Z,43.37
2022-12-19T16:44:27.317Z,43.46
2022-12-19T16:45:26.484Z,43.37
2022-12-19T16:46:26.657Z,43.37
2022-12-19T16:47:26.861Z,43.37
2022-12-19T16:48:26.953Z,43.57
2022-12-19T16:49:27.047Z,43.57
2022-12-19T16:50:27.249Z,43.46
2022-12-19T16:51:27.326Z,43.57
2022-12-19T16:52:27.490Z,43.66
2022-12-19T16:53:27.648Z,43.66
2022-12-19T16:54:27.784Z,43.57
2022-12-19T16:55:27.924Z,43.57
2022-12-19T16:56:28.093Z,43.37
2022-12-19T16:57:28.225Z,43.57
2022-12-19T16:58:28.363Z,43.57
2022-12-19T16:59:29.452Z,43.57
2022-12-19T17:00:28.887Z,43.57
2022-12-19T17:01:28.972Z,43.37
2022-12-19T17:02:29.040Z,43.57
2022-12-19T17:03:29.165Z,43.66
2022-12-19T17:04:29.215Z,43.46
2022-12-19T17:05:29.294Z,43.57
2022-12-19T17:06:29.463Z,43.37
2022-12-19T17:07:29.580Z,43.46
2022-12-19T17:08:29.742Z,43.57
2022-12-19T17:09:29.883Z,43.57
2022-12-19T17:10:30.049Z,43.46
2022-12-19T17:11:30.181Z,43.57
2022-12-19T17:12:30.231Z,43.66
2022-12-19T17:13:30.392Z,43.46
2022-12-19T17:14:30.534Z,43.57
2022-12-19T17:15:30.686Z,43.57
2022-12-19T17:16:30.935Z,43.46
2022-12-19T17:17:31.007Z,43.57
2022-12-19T17:18:31.093Z,43.46
2022-12-19T17:19:31.255Z,43.57